Fair Seas — V7PD2 — position and weather

sailwx.info

Track history (hours):
 
Tides and Currents Weather Stations Pressure Air Temp Water Temp Dewpoint Dewpoint Depression Visibility Wind Speed Wind Dir Waves Ship Positions

Fair Seas

Last reported at 2018-May-15 11:52 UTC. Time now 2018-May-23 20:32 UTC.
Position N 32°50' E 132°11'.
Warning: this ship's position is 8 days out of date.

Length 250 m; draft 8 m.

Type: Tanker. MMSI: 538003211.

Date/timePositionNaut miles runAvg speedWind from/ knotsBaromVisibWave heightAir tempDewpointWater temp
2018-May-15 11:52N 32°50' E 132°11'6 7.0
2018-May-15 11:03N 32°55' E 132°10'1 6.7
2018-May-15 10:59N 32°56' E 132°10'4 6.8
2018-May-15 10:22N 33°00' E 132°09'3 7.4
2018-May-15 10:00N 33°02' E 132°07'4 7.3
2018-May-15 09:29N 33°06' E 132°06'4 7.5
2018-May-15 08:59N 33°09' E 132°04'3 6.2
2018-May-15 08:30N 33°12' E 132°02'5 7.1
2018-May-15 07:46N 33°16' E 131°58'3 8.9
2018-May-15 07:27N 33°18' E 131°56'612.7
2018-May-15 06:58N 33°19' E 131°49'612.6
2018-May-15 06:30N 33°18' E 131°42'2 3.8
2018-May-15 05:59N 33°17' E 131°40'0 0.0
2018-May-15 05:30N 33°17' E 131°40'0 0.0
2018-May-15 05:00N 33°17' E 131°40'0 0.0
2018-May-15 04:30N 33°17' E 131°40'0 0.0
2018-May-15 04:00N 33°17' E 131°40'0 0.0
2018-May-14 01:38N 33°17' E 131°40'0 0.0
2018-May-13 23:24N 33°17' E 131°40'1 1.4
2018-May-13 23:00N 33°17' E 131°41'4 7.0
2018-May-13 22:30N 33°17' E 131°45'1 2.2
2018-May-13 21:58N 33°17' E 131°46'0 0.1
2018-May-13 21:28N 33°17' E 131°46'0 0.0
2018-May-13 20:55N 33°17' E 131°46'0 0.0
2018-May-13 20:28N 33°17' E 131°46'0 0.1
2018-May-13 19:55N 33°17' E 131°46'0 0.1
2018-May-13 19:25N 33°17' E 131°46'0 0.0
2018-May-13 18:55N 33°17' E 131°46'0 0.0
2018-May-13 17:25N 33°17' E 131°46'0 0.0
2018-May-13 16:55N 33°17' E 131°46'0 0.0
2018-May-13 16:25N 33°17' E 131°46'0 0.0
2018-May-13 15:55N 33°17' E 131°46'0 0.1
2018-May-13 15:28N 33°17' E 131°46'1 1.5
2018-May-13 15:00N 33°17' E 131°47'2 4.0
2018-May-13 14:30N 33°18' E 131°49'5 9.8
2018-May-13 13:59N 33°19' E 131°55'5 9.7
2018-May-13 13:30N 33°16' E 131°60'5 9.0
2018-May-13 13:00N 33°11' E 131°60'4 7.8
2018-May-13 12:30N 33°09' E 132°03'5 9.7
2018-May-13 12:00N 33°05' E 132°07'510.0
2018-May-13 11:30N 33°01' E 132°10'4 7.6
2018-May-13 11:00N 32°58' E 132°12'  
2018-May-11 01:34N 24°47' E 123°03'112.4
2018-May-11 01:30N 24°46' E 123°02'612.4
2018-May-11 01:00N 24°43' E 122°56'612.6
2018-May-11 00:30N 24°39' E 122°51'912.7
2018-May-10 23:48N 24°34' E 122°43'912.9
2018-May-10 23:06N 24°27' E 122°38'9712.9
2018-May-10 15:34N 23°00' E 121°50'113.3
2018-May-10 15:29N 22°59' E 121°49'713.3
2018-May-10 14:58N 22°53' E 121°46'4212.8
2018-May-10 11:43N 22°16' E 121°26'1113.1
2018-May-10 10:54N 22°06' E 121°22'512.9
2018-May-10 10:30N 22°01' E 121°20'  
Track history (hours):
 
Tides and Currents Weather Stations Pressure Air Temp Water Temp Dewpoint Dewpoint Depression Visibility Wind Speed Wind Dir Waves Ship Positions

Fair Seas

Last reported at 2018-May-15 11:52 UTC. Time now 2018-May-23 20:32 UTC.
Position N 32°50' E 132°11'.
Warning: this ship's position is 8 days out of date.

Length 250 m; draft 8 m.

Type: Tanker. MMSI: 538003211.

Date/timePositionNaut miles runAvg speedWind from/ knotsBaromVisibWave heightAir tempDewpointWater temp
2018-May-15 11:52N 32°50' E 132°11'6 7.0
2018-May-15 11:03N 32°55' E 132°10'1 6.7
2018-May-15 10:59N 32°56' E 132°10'4 6.8
2018-May-15 10:22N 33°00' E 132°09'3 7.4
2018-May-15 10:00N 33°02' E 132°07'4 7.3
2018-May-15 09:29N 33°06' E 132°06'4 7.5
2018-May-15 08:59N 33°09' E 132°04'3 6.2
2018-May-15 08:30N 33°12' E 132°02'5 7.1
2018-May-15 07:46N 33°16' E 131°58'3 8.9
2018-May-15 07:27N 33°18' E 131°56'612.7
2018-May-15 06:58N 33°19' E 131°49'612.6
2018-May-15 06:30N 33°18' E 131°42'2 3.8
2018-May-15 05:59N 33°17' E 131°40'0 0.0
2018-May-15 05:30N 33°17' E 131°40'0 0.0
2018-May-15 05:00N 33°17' E 131°40'0 0.0
2018-May-15 04:30N 33°17' E 131°40'0 0.0
2018-May-15 04:00N 33°17' E 131°40'0 0.0
2018-May-14 01:38N 33°17' E 131°40'0 0.0
2018-May-13 23:24N 33°17' E 131°40'1 1.4
2018-May-13 23:00N 33°17' E 131°41'4 7.0
2018-May-13 22:30N 33°17' E 131°45'1 2.2
2018-May-13 21:58N 33°17' E 131°46'0 0.1
2018-May-13 21:28N 33°17' E 131°46'0 0.0
2018-May-13 20:55N 33°17' E 131°46'0 0.0
2018-May-13 20:28N 33°17' E 131°46'0 0.1
2018-May-13 19:55N 33°17' E 131°46'0 0.1
2018-May-13 19:25N 33°17' E 131°46'0 0.0
2018-May-13 18:55N 33°17' E 131°46'0 0.0
2018-May-13 17:25N 33°17' E 131°46'0 0.0
2018-May-13 16:55N 33°17' E 131°46'0 0.0
2018-May-13 16:25N 33°17' E 131°46'0 0.0
2018-May-13 15:55N 33°17' E 131°46'0 0.1
2018-May-13 15:28N 33°17' E 131°46'1 1.5
2018-May-13 15:00N 33°17' E 131°47'2 4.0
2018-May-13 14:30N 33°18' E 131°49'5 9.8
2018-May-13 13:59N 33°19' E 131°55'5 9.7
2018-May-13 13:30N 33°16' E 131°60'5 9.0
2018-May-13 13:00N 33°11' E 131°60'4 7.8
2018-May-13 12:30N 33°09' E 132°03'5 9.7
2018-May-13 12:00N 33°05' E 132°07'510.0
2018-May-13 11:30N 33°01' E 132°10'4 7.6
2018-May-13 11:00N 32°58' E 132°12'  
2018-May-11 01:34N 24°47' E 123°03'112.4
2018-May-11 01:30N 24°46' E 123°02'612.4
2018-May-11 01:00N 24°43' E 122°56'612.6
2018-May-11 00:30N 24°39' E 122°51'912.7
2018-May-10 23:48N 24°34' E 122°43'912.9
2018-May-10 23:06N 24°27' E 122°38'9712.9
2018-May-10 15:34N 23°00' E 121°50'113.3
2018-May-10 15:29N 22°59' E 121°49'713.3
2018-May-10 14:58N 22°53' E 121°46'4212.8
2018-May-10 11:43N 22°16' E 121°26'1113.1
2018-May-10 10:54N 22°06' E 121°22'512.9
2018-May-10 10:30N 22°01' E 121°20'  

Dump ship's entire track history